createdAt,value
2019-06-20T00:01:18.944Z,0.00
2019-06-20T00:02:18.851Z,0.00
2019-06-20T00:04:10.626Z,0.00
2019-06-20T00:05:10.553Z,0.00
2019-06-20T00:07:02.459Z,0.00
2019-06-20T00:08:02.325Z,0.00
2019-06-20T00:09:54.078Z,0.00
2019-06-20T00:10:54.065Z,0.00
2019-06-20T00:12:59.480Z,0.00
2019-06-20T00:13:45.862Z,0.00
2019-06-20T00:15:37.798Z,0.00
2019-06-20T00:16:37.595Z,0.00
2019-06-20T00:18:29.378Z,0.00
2019-06-20T00:19:29.343Z,0.00
2019-06-20T00:21:21.227Z,0.00
2019-06-20T00:22:21.497Z,0.00
2019-06-20T00:24:13.020Z,0.00
2019-06-20T00:25:12.861Z,0.00
2019-06-20T00:27:04.742Z,0.00
2019-06-20T00:28:04.567Z,0.00
2019-06-20T00:29:56.360Z,0.00
2019-06-20T00:30:56.285Z,0.00
2019-06-20T00:32:48.072Z,0.00
2019-06-20T00:33:48.060Z,0.00
2019-06-20T00:35:39.859Z,0.00
2019-06-20T00:36:39.828Z,0.00
2019-06-20T00:38:31.558Z,0.00
2019-06-20T00:39:31.499Z,0.00
2019-06-20T00:41:23.414Z,0.00
2019-06-20T00:42:23.330Z,0.00
2019-06-20T00:44:15.168Z,0.00
2019-06-20T00:45:15.069Z,0.00
2019-06-20T00:47:07.088Z,0.00
2019-06-20T00:48:06.968Z,0.00
2019-06-20T00:49:58.739Z,0.00
2019-06-20T00:50:58.679Z,0.00
2019-06-20T00:52:50.541Z,0.00
2019-06-20T00:53:50.464Z,0.00
2019-06-20T00:55:42.351Z,0.00
2019-06-20T00:56:42.338Z,0.00
2019-06-20T00:58:34.073Z,0.00
2019-06-20T00:59:34.022Z,0.00
2019-06-20T01:01:25.804Z,0.00
2019-06-20T01:02:25.721Z,0.00
2019-06-20T01:04:17.510Z,0.00
2019-06-20T01:05:17.478Z,0.00
2019-06-20T01:07:09.269Z,0.00
2019-06-20T01:08:09.183Z,0.00
2019-06-20T01:10:00.983Z,0.00
2019-06-20T01:11:00.923Z,0.00
2019-06-20T01:12:52.899Z,0.00
2019-06-20T01:13:53.033Z,0.00
2019-06-20T01:15:44.619Z,0.00
2019-06-20T01:16:44.520Z,0.00
2019-06-20T01:18:37.386Z,0.00
2019-06-20T01:19:37.387Z,0.00
2019-06-20T01:21:30.215Z,0.00
2019-06-20T01:22:30.131Z,0.00
2019-06-20T01:24:21.950Z,0.00
2019-06-20T01:25:21.890Z,0.00
2019-06-20T01:27:14.788Z,0.00
2019-06-20T01:28:14.638Z,0.00
2019-06-20T01:30:06.436Z,0.00
2019-06-20T01:31:06.353Z,0.00
2019-06-20T01:32:58.260Z,0.00
2019-06-20T01:33:58.213Z,0.00
2019-06-20T01:35:49.992Z,0.00
2019-06-20T01:36:49.922Z,0.00
2019-06-20T01:38:41.766Z,0.00
2019-06-20T01:39:41.717Z,0.00
2019-06-20T01:41:33.420Z,0.00
2019-06-20T01:42:33.347Z,0.00
2019-06-20T01:44:25.106Z,0.00
2019-06-20T01:45:25.056Z,0.00
2019-06-20T01:47:16.864Z,0.00
2019-06-20T01:48:16.774Z,0.00
2019-06-20T01:50:09.540Z,0.00
2019-06-20T01:51:09.502Z,0.00
2019-06-20T01:53:02.316Z,0.00
2019-06-20T01:55:07.307Z,0.00
2019-06-20T01:56:07.256Z,0.00
2019-06-20T01:57:59.044Z,0.00
2019-06-20T01:58:58.983Z,0.00
2019-06-20T02:00:50.840Z,0.00
2019-06-20T02:01:50.743Z,0.00
2019-06-20T02:03:42.550Z,0.00
2019-06-20T02:04:42.520Z,0.00
2019-06-20T02:06:34.259Z,0.00
2019-06-20T02:07:34.236Z,4.00
2019-06-20T02:09:25.970Z,4.00
2019-06-20T02:10:25.903Z,0.00
2019-06-20T02:12:17.703Z,4.00
2019-06-20T02:13:17.637Z,4.00
2019-06-20T02:15:09.721Z,4.00
2019-06-20T02:16:09.646Z,4.00
2019-06-20T02:18:01.674Z,8.00
2019-06-20T02:19:01.480Z,4.00
2019-06-20T02:20:53.344Z,8.00
2019-06-20T02:21:53.200Z,12.00
2019-06-20T02:23:46.272Z,8.00
2019-06-20T02:24:46.154Z,12.00
2019-06-20T02:26:37.930Z,16.00
2019-06-20T02:27:37.850Z,16.00
2019-06-20T02:29:29.668Z,20.00
2019-06-20T02:30:29.603Z,20.00
2019-06-20T02:32:21.474Z,24.00
2019-06-20T02:33:21.330Z,28.00
2019-06-20T02:35:13.353Z,32.00
2019-06-20T02:36:13.284Z,36.00
2019-06-20T02:38:05.113Z,40.00
2019-06-20T02:39:05.006Z,44.00
2019-06-20T02:40:56.837Z,56.00
2019-06-20T02:41:56.790Z,60.00
2019-06-20T02:43:48.575Z,68.00
2019-06-20T02:44:48.478Z,76.00
2019-06-20T02:46:40.543Z,88.00
2019-06-20T02:47:40.200Z,92.00
2019-06-20T02:49:31.981Z,104.00
2019-06-20T02:50:31.933Z,108.00
2019-06-20T02:52:23.812Z,116.00
2019-06-20T02:53:23.725Z,124.00
2019-06-20T02:55:15.533Z,132.00
2019-06-20T02:56:15.491Z,140.00
2019-06-20T02:58:07.286Z,156.00
2019-06-20T02:59:07.198Z,168.00
2019-06-20T03:00:59.046Z,188.00
2019-06-20T03:01:58.996Z,196.00
2019-06-20T03:03:50.872Z,216.00
2019-06-20T03:04:51.100Z,228.00
2019-06-20T03:06:42.528Z,252.00
2019-06-20T03:07:42.469Z,264.00
2019-06-20T03:09:34.255Z,288.00
2019-06-20T03:10:34.194Z,300.00
2019-06-20T03:12:26.155Z,320.00
2019-06-20T03:13:25.964Z,340.00
2019-06-20T03:15:17.742Z,388.00
2019-06-20T03:16:17.713Z,384.00
2019-06-20T03:18:09.572Z,332.00
2019-06-20T03:19:09.503Z,304.00
2019-06-20T03:21:01.381Z,288.00
2019-06-20T03:22:01.415Z,292.00
2019-06-20T03:23:53.163Z,300.00
2019-06-20T03:24:53.064Z,308.00
2019-06-20T03:26:44.887Z,324.00
2019-06-20T03:27:44.819Z,332.00
2019-06-20T03:29:36.682Z,360.00
2019-06-20T03:30:36.575Z,380.00
2019-06-20T03:32:28.558Z,432.00
2019-06-20T03:33:28.449Z,456.00
2019-06-20T03:35:20.280Z,508.00
2019-06-20T03:36:20.176Z,560.00
2019-06-20T03:38:12.186Z,692.00
2019-06-20T03:39:12.076Z,760.00
2019-06-20T03:41:03.848Z,852.00
2019-06-20T03:42:03.782Z,884.00
2019-06-20T03:43:58.818Z,936.00
2019-06-20T03:45:02.306Z,956.00
2019-06-20T03:46:47.415Z,980.00
2019-06-20T03:47:47.334Z,992.00
2019-06-20T03:49:39.148Z,1016.00
2019-06-20T03:50:39.083Z,1036.00
2019-06-20T03:52:31.021Z,1080.00
2019-06-20T03:53:30.869Z,1100.00
2019-06-20T03:55:22.645Z,1132.00
2019-06-20T03:56:22.637Z,1144.00
2019-06-20T03:58:14.405Z,1192.00
2019-06-20T03:59:14.325Z,1224.00
2019-06-20T04:01:06.213Z,1292.00
2019-06-20T04:02:06.136Z,1324.00
2019-06-20T04:03:57.954Z,1368.00
2019-06-20T04:04:57.869Z,1392.00
2019-06-20T04:06:49.713Z,1436.00
2019-06-20T04:07:49.660Z,1464.00
2019-06-20T04:09:41.546Z,1516.00
2019-06-20T04:10:41.454Z,1540.00
2019-06-20T04:12:33.221Z,1568.00
2019-06-20T04:13:33.158Z,1580.00
2019-06-20T04:15:25.590Z,1592.00
2019-06-20T04:16:25.417Z,1604.00
2019-06-20T04:18:17.196Z,1636.00
2019-06-20T04:19:17.115Z,1664.00
2019-06-20T04:21:08.956Z,1712.00
2019-06-20T04:22:08.837Z,1744.00
2019-06-20T04:24:00.687Z,1804.00
2019-06-20T04:25:00.618Z,1840.00
2019-06-20T04:26:52.510Z,1920.00
2019-06-20T04:27:52.416Z,1984.00
2019-06-20T04:29:44.261Z,2188.00
2019-06-20T04:30:44.182Z,2256.00
2019-06-20T04:32:36.441Z,2308.00
2019-06-20T04:33:36.159Z,2348.00
2019-06-20T04:35:27.970Z,2472.00
2019-06-20T04:36:27.896Z,2556.00
2019-06-20T04:38:19.850Z,2844.00
2019-06-20T04:39:19.861Z,3192.00
2019-06-20T04:41:11.702Z,4328.00
2019-06-20T04:42:11.658Z,5392.00
2019-06-20T04:44:04.732Z,7080.00
2019-06-20T04:45:04.620Z,2884.00
2019-06-20T04:46:56.569Z,3744.00
2019-06-20T04:47:56.465Z,8996.00
2019-06-20T04:49:48.440Z,8804.00
2019-06-20T04:50:48.313Z,8892.00
2019-06-20T04:52:40.262Z,8812.00
2019-06-20T04:53:40.193Z,8880.00
2019-06-20T04:55:35.518Z,8392.00
2019-06-20T04:56:31.949Z,8364.00
2019-06-20T04:58:23.866Z,8648.00
2019-06-20T04:59:23.786Z,8168.00
2019-06-20T05:01:15.586Z,8372.00
2019-06-20T05:02:15.542Z,8048.00
2019-06-20T05:04:08.915Z,4920.00
2019-06-20T05:05:08.311Z,5752.00
2019-06-20T05:07:00.227Z,9340.00
2019-06-20T05:08:00.173Z,9888.00
2019-06-20T05:09:51.968Z,10508.00
2019-06-20T05:10:51.896Z,10852.00
2019-06-20T05:12:43.747Z,11300.00
2019-06-20T05:13:43.640Z,11208.00
2019-06-20T05:15:51.129Z,11140.00
2019-06-20T05:16:35.507Z,11980.00
2019-06-20T05:18:27.344Z,11000.00
2019-06-20T05:19:27.292Z,5776.00
2019-06-20T05:21:22.282Z,6428.00
2019-06-20T05:22:19.040Z,5460.00
2019-06-20T05:24:11.038Z,6312.00
2019-06-20T05:25:10.988Z,3396.00
2019-06-20T05:27:02.852Z,2820.00
2019-06-20T05:28:02.733Z,2580.00
2019-06-20T05:29:54.493Z,2256.00
2019-06-20T05:30:54.430Z,2220.00
2019-06-20T05:32:46.376Z,2260.00
2019-06-20T05:33:46.256Z,2284.00
2019-06-20T05:35:38.231Z,2376.00
2019-06-20T05:36:38.140Z,2456.00
2019-06-20T05:38:30.064Z,2620.00
2019-06-20T05:39:29.891Z,2744.00
2019-06-20T05:41:21.809Z,3456.00
2019-06-20T05:42:21.694Z,2936.00
2019-06-20T05:44:13.530Z,3004.00
2019-06-20T05:45:13.457Z,2752.00
2019-06-20T05:47:12.503Z,2612.00
2019-06-20T05:48:05.280Z,2604.00
2019-06-20T05:49:57.201Z,2828.00
2019-06-20T05:50:57.183Z,2608.00
2019-06-20T05:52:48.898Z,2492.00
2019-06-20T05:53:48.875Z,2564.00
2019-06-20T05:55:40.690Z,3584.00
2019-06-20T05:56:40.615Z,2832.00
2019-06-20T05:58:32.942Z,2208.00
2019-06-20T05:59:32.402Z,2148.00
2019-06-20T06:01:24.265Z,2260.00
2019-06-20T06:02:24.172Z,2340.00
2019-06-20T06:04:16.049Z,2480.00
2019-06-20T06:05:15.962Z,2612.00
2019-06-20T06:07:07.847Z,2868.00
2019-06-20T06:08:07.746Z,2940.00
2019-06-20T06:10:03.733Z,2944.00
2019-06-20T06:10:59.475Z,2872.00
2019-06-20T06:12:51.343Z,2748.00
2019-06-20T06:13:51.265Z,2660.00
2019-06-20T06:15:43.083Z,2468.00
2019-06-20T06:16:44.239Z,2460.00
2019-06-20T06:18:34.934Z,2476.00
2019-06-20T06:19:34.887Z,2420.00
2019-06-20T06:21:26.836Z,2236.00
2019-06-20T06:22:26.691Z,2132.00
2019-06-20T06:24:18.503Z,1940.00
2019-06-20T06:25:18.448Z,1808.00
2019-06-20T06:27:10.357Z,1576.00
2019-06-20T06:28:12.467Z,1500.00
2019-06-20T06:30:04.139Z,1416.00
2019-06-20T06:31:04.077Z,1248.00
2019-06-20T06:32:55.898Z,1240.00
2019-06-20T06:33:55.828Z,1312.00
2019-06-20T06:35:47.756Z,1368.00
2019-06-20T06:36:47.656Z,1412.00
2019-06-20T06:38:39.685Z,1268.00
2019-06-20T06:39:43.268Z,1200.00
2019-06-20T06:41:31.165Z,1076.00
2019-06-20T06:42:31.094Z,1016.00
2019-06-20T06:44:22.936Z,940.00
2019-06-20T06:45:22.840Z,928.00
2019-06-20T06:47:14.707Z,964.00
2019-06-20T06:48:14.581Z,988.00
2019-06-20T06:50:06.405Z,1016.00
2019-06-20T06:51:06.298Z,1056.00
2019-06-20T06:52:58.436Z,1224.00
2019-06-20T06:53:58.754Z,1316.00
2019-06-20T06:55:50.547Z,1436.00
2019-06-20T06:56:50.425Z,1472.00
2019-06-20T06:58:42.265Z,1644.00
2019-06-20T06:59:42.220Z,1784.00
2019-06-20T07:01:34.126Z,1932.00
2019-06-20T07:02:34.029Z,1920.00
2019-06-20T07:04:25.971Z,1852.00
2019-06-20T07:05:25.859Z,1832.00
2019-06-20T07:07:17.706Z,1772.00
2019-06-20T07:08:17.646Z,1764.00
2019-06-20T07:10:09.412Z,1784.00
2019-06-20T07:11:09.333Z,1772.00
2019-06-20T07:13:01.144Z,1692.00
2019-06-20T07:14:01.081Z,1628.00
2019-06-20T07:15:52.888Z,1532.00
2019-06-20T07:17:00.152Z,1520.00
2019-06-20T07:18:44.710Z,1540.00
2019-06-20T07:19:44.626Z,1584.00
2019-06-20T07:21:36.586Z,1708.00
2019-06-20T07:22:36.382Z,1816.00
2019-06-20T07:24:28.187Z,2064.00
2019-06-20T07:25:28.179Z,2224.00
2019-06-20T07:27:19.888Z,2556.00
2019-06-20T07:28:19.810Z,2748.00
2019-06-20T07:30:11.730Z,2952.00
2019-06-20T07:31:11.538Z,2972.00
2019-06-20T07:33:26.893Z,3060.00
2019-06-20T07:34:27.273Z,3192.00
2019-06-20T07:36:20.241Z,3840.00
2019-06-20T07:37:19.952Z,4840.00
2019-06-20T07:39:12.878Z,5664.00
2019-06-20T07:40:12.816Z,9596.00
2019-06-20T07:42:06.752Z,6536.00
2019-06-20T07:43:06.656Z,5652.00
2019-06-20T07:44:59.571Z,4728.00
2019-06-20T07:46:03.010Z,4332.00
2019-06-20T07:47:52.444Z,3500.00
2019-06-20T07:48:52.377Z,2956.00
2019-06-20T07:50:45.242Z,2060.00
2019-06-20T07:51:45.173Z,1780.00
2019-06-20T07:53:38.210Z,1648.00
2019-06-20T07:54:38.042Z,1708.00
2019-06-20T07:56:30.912Z,1800.00
2019-06-20T07:57:30.837Z,1888.00
2019-06-20T07:59:23.795Z,1888.00
2019-06-20T08:00:23.708Z,1964.00
2019-06-20T08:02:16.544Z,2004.00
2019-06-20T08:03:16.563Z,1900.00
2019-06-20T08:05:09.523Z,1628.00
2019-06-20T08:06:09.477Z,1532.00
2019-06-20T08:08:02.315Z,1536.00
2019-06-20T08:09:02.231Z,1632.00
2019-06-20T08:10:55.156Z,1820.00
2019-06-20T08:11:55.107Z,1912.00
2019-06-20T08:13:48.006Z,2008.00
2019-06-20T08:14:47.969Z,2044.00
2019-06-20T08:16:40.958Z,2280.00
2019-06-20T08:17:41.217Z,2180.00
2019-06-20T08:19:33.639Z,2304.00
2019-06-20T08:20:33.552Z,2372.00
2019-06-20T08:22:26.469Z,2460.00
2019-06-20T08:23:26.337Z,2480.00
2019-06-20T08:25:19.291Z,2540.00
2019-06-20T08:26:19.179Z,2628.00
2019-06-20T08:28:12.008Z,3100.00
2019-06-20T08:29:20.821Z,3500.00
2019-06-20T08:31:04.917Z,11500.00
2019-06-20T08:32:04.834Z,5412.00
2019-06-20T08:33:59.230Z,3928.00
2019-06-20T08:34:59.067Z,3612.00
2019-06-20T08:36:50.548Z,3508.00
2019-06-20T08:37:50.470Z,3744.00
2019-06-20T08:39:43.495Z,4484.00
2019-06-20T08:40:43.425Z,5516.00
2019-06-20T08:42:36.504Z,3500.00
2019-06-20T08:43:36.411Z,3220.00
2019-06-20T08:45:30.122Z,3480.00
2019-06-20T08:46:30.058Z,3956.00
2019-06-20T08:48:23.634Z,21760.00
2019-06-20T08:49:23.015Z,22464.00
2019-06-20T08:51:16.343Z,8036.00
2019-06-20T08:52:16.246Z,23840.00
2019-06-20T08:54:09.110Z,7172.00
2019-06-20T08:55:09.003Z,6440.00
2019-06-20T08:57:03.550Z,11316.00
2019-06-20T08:58:03.287Z,22528.00
2019-06-20T08:59:55.990Z,15264.00
2019-06-20T09:00:55.972Z,12160.00
2019-06-20T09:02:47.632Z,13600.00
2019-06-20T09:03:47.558Z,8880.00
2019-06-20T09:05:40.711Z,21152.00
2019-06-20T09:06:40.616Z,13472.00
2019-06-20T09:08:33.460Z,8428.00
2019-06-20T09:09:33.334Z,7524.00
2019-06-20T09:11:26.269Z,4588.00
2019-06-20T09:12:26.144Z,3840.00
2019-06-20T09:14:18.994Z,3080.00
2019-06-20T09:15:18.925Z,2832.00
2019-06-20T09:17:11.843Z,2528.00
2019-06-20T09:18:11.758Z,2412.00
2019-06-20T09:20:04.864Z,2156.00
2019-06-20T09:21:04.770Z,1984.00
2019-06-20T09:22:58.910Z,1704.00
2019-06-20T09:23:58.286Z,1592.00
2019-06-20T09:25:52.336Z,1472.00
2019-06-20T09:26:52.413Z,1484.00
2019-06-20T09:28:44.197Z,1616.00
2019-06-20T09:29:44.090Z,1684.00
2019-06-20T09:31:37.243Z,1856.00
2019-06-20T09:32:37.123Z,2000.00
2019-06-20T09:34:30.068Z,2696.00
2019-06-20T09:35:30.006Z,3528.00
2019-06-20T09:37:22.889Z,4508.00
2019-06-20T09:38:22.807Z,4612.00
2019-06-20T09:40:15.684Z,3728.00
2019-06-20T09:41:15.698Z,3404.00
2019-06-20T09:43:08.436Z,3136.00
2019-06-20T09:44:08.367Z,3092.00
2019-06-20T09:46:02.367Z,2928.00
2019-06-20T09:47:02.433Z,2844.00
2019-06-20T09:48:55.574Z,2952.00
2019-06-20T09:49:56.029Z,3268.00
2019-06-20T09:51:48.596Z,5052.00
2019-06-20T09:52:49.791Z,6728.00
2019-06-20T09:54:39.902Z,7912.00
2019-06-20T09:55:39.835Z,5576.00
2019-06-20T09:57:32.871Z,5460.00
2019-06-20T09:58:32.667Z,5396.00
2019-06-20T10:00:25.680Z,5308.00
2019-06-20T10:01:25.416Z,5700.00
2019-06-20T10:03:18.293Z,5236.00
2019-06-20T10:04:21.449Z,4988.00
2019-06-20T10:06:14.364Z,4716.00
2019-06-20T10:07:10.988Z,4720.00
2019-06-20T10:09:03.831Z,4696.00
2019-06-20T10:10:03.800Z,4780.00
2019-06-20T10:11:56.747Z,7076.00
2019-06-20T10:12:56.687Z,5812.00
2019-06-20T10:14:49.642Z,5980.00
2019-06-20T10:15:49.605Z,5732.00
2019-06-20T10:17:42.837Z,5628.00
2019-06-20T10:18:42.417Z,5600.00
2019-06-20T10:20:38.535Z,5736.00
2019-06-20T10:21:35.206Z,5964.00
2019-06-20T10:23:28.359Z,6412.00
2019-06-20T10:24:28.266Z,6012.00
2019-06-20T10:26:21.101Z,9520.00
2019-06-20T10:27:21.035Z,8536.00
2019-06-20T10:29:13.946Z,6084.00
2019-06-20T10:30:14.804Z,5144.00
2019-06-20T10:32:06.710Z,4496.00
2019-06-20T10:33:06.661Z,3856.00
2019-06-20T10:34:59.550Z,3476.00
2019-06-20T10:35:59.486Z,3676.00
2019-06-20T10:37:52.957Z,3828.00
2019-06-20T10:38:52.626Z,3720.00
2019-06-20T10:40:46.344Z,3484.00
2019-06-20T10:41:46.656Z,3348.00
2019-06-20T10:43:37.887Z,3516.00
2019-06-20T10:44:37.820Z,3320.00
2019-06-20T10:46:30.688Z,3368.00
2019-06-20T10:47:35.042Z,3776.00
2019-06-20T10:49:23.414Z,3104.00
2019-06-20T10:50:23.307Z,3516.00
2019-06-20T10:52:16.277Z,4456.00
2019-06-20T10:53:16.226Z,5104.00
2019-06-20T10:55:09.178Z,5148.00
2019-06-20T10:56:09.084Z,4796.00
2019-06-20T10:58:02.035Z,4724.00
2019-06-20T10:59:01.983Z,4736.00
2019-06-20T11:00:54.962Z,4896.00
2019-06-20T11:01:54.883Z,5008.00
2019-06-20T11:03:47.841Z,5376.00
2019-06-20T11:04:47.777Z,5480.00
2019-06-20T11:06:41.649Z,5540.00
2019-06-20T11:07:42.082Z,5620.00
2019-06-20T11:09:33.684Z,5492.00
2019-06-20T11:10:33.629Z,5380.00
2019-06-20T11:12:26.582Z,4832.00
2019-06-20T11:13:26.502Z,3976.00
2019-06-20T11:15:19.548Z,3372.00
2019-06-20T11:16:19.462Z,3332.00
2019-06-20T11:18:12.527Z,3212.00
2019-06-20T11:19:12.484Z,3228.00
2019-06-20T11:21:05.289Z,2716.00
2019-06-20T11:22:05.197Z,2384.00
2019-06-20T11:23:58.127Z,2284.00
2019-06-20T11:24:58.120Z,2276.00
2019-06-20T11:26:50.872Z,2472.00
2019-06-20T11:27:50.843Z,2660.00
2019-06-20T11:29:44.117Z,2724.00
2019-06-20T11:30:55.322Z,2660.00
2019-06-20T11:32:36.584Z,2732.00
2019-06-20T11:33:38.237Z,2836.00
2019-06-20T11:35:29.359Z,3192.00
2019-06-20T11:36:29.307Z,3140.00
2019-06-20T11:38:22.100Z,3124.00
2019-06-20T11:39:22.015Z,3124.00
2019-06-20T11:41:15.060Z,3132.00
2019-06-20T11:42:14.896Z,3152.00
2019-06-20T11:44:08.007Z,3188.00
2019-06-20T11:45:07.859Z,3064.00
2019-06-20T11:47:00.812Z,2740.00
2019-06-20T11:48:00.744Z,2580.00
2019-06-20T11:49:53.580Z,2772.00
2019-06-20T11:50:53.514Z,2860.00
2019-06-20T11:52:46.405Z,2736.00
2019-06-20T11:53:46.382Z,2716.00
2019-06-20T11:55:39.408Z,2800.00
2019-06-20T11:56:39.244Z,2760.00
2019-06-20T11:58:32.004Z,2612.00
2019-06-20T11:59:31.946Z,2588.00
2019-06-20T12:01:32.921Z,2620.00
2019-06-20T12:02:24.729Z,2664.00
2019-06-20T12:04:17.929Z,2832.00
2019-06-20T12:05:17.537Z,2904.00
2019-06-20T12:07:10.669Z,2920.00
2019-06-20T12:08:10.528Z,3092.00
2019-06-20T12:10:03.327Z,3212.00
2019-06-20T12:11:03.234Z,3228.00
2019-06-20T12:12:56.064Z,3592.00
2019-06-20T12:13:56.000Z,3824.00
2019-06-20T12:15:49.094Z,4088.00
2019-06-20T12:16:48.823Z,4148.00
2019-06-20T12:18:43.052Z,4204.00
2019-06-20T12:19:42.465Z,4248.00
2019-06-20T12:21:34.708Z,4292.00
2019-06-20T12:22:34.550Z,4416.00
2019-06-20T12:24:27.387Z,4504.00
2019-06-20T12:25:27.139Z,4536.00
2019-06-20T12:27:20.063Z,4408.00
2019-06-20T12:28:19.949Z,4200.00
2019-06-20T12:30:12.998Z,3792.00
2019-06-20T12:31:19.472Z,3568.00
2019-06-20T12:33:05.895Z,3236.00
2019-06-20T12:34:06.464Z,3068.00
2019-06-20T12:35:58.749Z,2852.00
2019-06-20T12:36:58.696Z,2684.00
2019-06-20T12:38:51.643Z,2324.00
2019-06-20T12:39:51.497Z,2104.00
2019-06-20T12:41:45.515Z,1940.00
2019-06-20T12:42:44.888Z,1920.00
2019-06-20T12:44:38.498Z,1956.00
2019-06-20T12:45:38.219Z,2088.00
2019-06-20T12:47:30.117Z,2320.00
2019-06-20T12:48:30.187Z,2508.00
2019-06-20T12:50:22.962Z,2752.00
2019-06-20T12:51:22.821Z,2812.00
2019-06-20T12:53:15.800Z,3004.00
2019-06-20T12:54:15.816Z,3056.00
2019-06-20T12:56:08.805Z,3128.00
2019-06-20T12:57:08.544Z,3028.00
2019-06-20T12:59:01.448Z,2884.00
2019-06-20T13:00:01.328Z,2856.00
2019-06-20T13:01:54.150Z,2736.00
2019-06-20T13:02:54.068Z,2656.00
2019-06-20T13:04:46.894Z,2536.00
2019-06-20T13:05:47.150Z,2232.00
2019-06-20T13:07:40.702Z,2252.00
2019-06-20T13:08:40.691Z,2116.00
2019-06-20T13:10:32.724Z,2040.00
2019-06-20T13:11:32.626Z,1964.00
2019-06-20T13:13:25.625Z,2136.00
2019-06-20T13:14:25.520Z,2372.00
2019-06-20T13:16:18.395Z,2524.00
2019-06-20T13:17:18.298Z,2604.00
2019-06-20T13:19:11.252Z,2532.00
2019-06-20T13:20:11.199Z,2336.00
2019-06-20T13:22:04.119Z,1844.00
2019-06-20T13:23:04.034Z,1708.00
2019-06-20T13:24:57.202Z,1724.00
2019-06-20T13:25:56.845Z,1760.00
2019-06-20T13:27:50.626Z,2148.00
2019-06-20T13:29:03.251Z,2328.00
2019-06-20T13:30:46.863Z,2464.00
2019-06-20T13:31:58.421Z,2576.00
2019-06-20T13:33:35.892Z,2620.00
2019-06-20T13:34:35.761Z,2628.00
2019-06-20T13:36:28.806Z,2652.00
2019-06-20T13:37:28.749Z,2632.00
2019-06-20T13:39:22.352Z,2528.00
2019-06-20T13:40:22.186Z,2492.00
2019-06-20T13:42:15.072Z,2384.00
2019-06-20T13:43:15.307Z,2348.00
2019-06-20T13:45:13.325Z,2276.00
2019-06-20T13:46:09.368Z,2324.00
2019-06-20T13:48:02.791Z,2408.00
2019-06-20T13:49:02.638Z,2480.00
2019-06-20T13:50:55.721Z,2336.00
2019-06-20T13:51:55.491Z,2156.00
2019-06-20T13:53:48.653Z,1864.00
2019-06-20T13:54:49.826Z,1708.00
2019-06-20T13:56:42.294Z,1436.00
2019-06-20T13:57:42.694Z,1328.00
2019-06-20T13:59:35.470Z,1184.00
2019-06-20T14:00:34.045Z,1124.00
2019-06-20T14:02:27.074Z,1044.00
2019-06-20T14:03:27.032Z,1016.00
2019-06-20T14:05:20.193Z,980.00
2019-06-20T14:06:19.892Z,972.00
2019-06-20T14:08:12.718Z,988.00
2019-06-20T14:09:12.607Z,1004.00
2019-06-20T14:11:05.886Z,996.00
2019-06-20T14:12:05.778Z,1020.00
2019-06-20T14:13:58.828Z,1576.00
2019-06-20T14:14:58.765Z,1536.00
2019-06-20T14:16:51.634Z,1624.00
2019-06-20T14:17:51.614Z,1652.00
2019-06-20T14:19:45.115Z,1788.00
2019-06-20T14:20:44.839Z,1776.00
2019-06-20T14:22:37.099Z,1948.00
2019-06-20T14:23:37.045Z,2064.00
2019-06-20T14:25:29.994Z,2220.00
2019-06-20T14:26:29.867Z,2252.00
2019-06-20T14:28:23.974Z,2216.00
2019-06-20T14:29:23.903Z,2164.00
2019-06-20T14:31:16.702Z,2040.00
2019-06-20T14:32:22.087Z,1976.00
2019-06-20T14:34:09.776Z,1832.00
2019-06-20T14:35:09.616Z,1732.00
2019-06-20T14:37:03.233Z,1504.00
2019-06-20T14:38:03.088Z,1376.00
2019-06-20T14:39:57.091Z,1136.00
2019-06-20T14:40:56.059Z,1016.00
2019-06-20T14:42:50.268Z,836.00
2019-06-20T14:43:49.687Z,764.00
2019-06-20T14:45:43.820Z,664.00
2019-06-20T14:46:42.340Z,620.00
2019-06-20T14:48:35.594Z,572.00
2019-06-20T14:49:35.476Z,560.00
2019-06-20T14:51:28.802Z,540.00
2019-06-20T14:52:28.349Z,528.00
2019-06-20T14:54:21.311Z,544.00
2019-06-20T14:55:21.499Z,568.00
2019-06-20T14:57:14.386Z,620.00
2019-06-20T14:58:14.285Z,656.00
2019-06-20T15:00:07.183Z,736.00
2019-06-20T15:01:07.091Z,788.00
